createdAt,value
2022-07-26T00:04:05.444Z,91.72182
2022-07-26T00:09:07.135Z,91.72182
2022-07-26T00:14:09.427Z,89.97156
2022-07-26T00:19:11.135Z,88.94118
2022-07-26T00:24:12.693Z,88.60094
2022-07-26T00:29:14.660Z,88.2623
2022-07-26T00:34:16.217Z,88.2623
2022-07-26T00:39:18.223Z,87.25581
2022-07-26T00:44:20.286Z,87.25581
2022-07-26T00:49:21.759Z,87.58974
2022-07-26T00:54:23.294Z,87.25581
2022-07-26T00:59:24.877Z,87.25581
2022-07-26T01:04:26.392Z,87.92523
2022-07-26T01:09:27.804Z,88.60094
2022-07-26T01:14:30.015Z,89.28302
2022-07-26T01:19:31.769Z,89.97156
2022-07-26T01:24:33.344Z,91.36842
2022-07-26T01:29:36.378Z,89.97156
2022-07-26T01:34:38.178Z,89.97156
2022-07-26T01:39:39.827Z,89.97156
2022-07-26T01:44:41.578Z,87.25581
2022-07-26T01:49:43.192Z,86.92343
2022-07-26T01:54:44.717Z,85.2844
2022-07-26T01:59:46.455Z,85.2844
2022-07-26T02:04:48.012Z,85.6092
2022-07-26T02:09:49.658Z,86.26328
2022-07-26T02:14:51.615Z,87.25581
2022-07-26T02:19:53.284Z,88.2623
2022-07-26T02:24:54.757Z,89.97156
2022-07-26T02:29:56.379Z,90.66667
2022-07-26T02:34:57.830Z,91.72182
2022-07-26T02:39:59.366Z,93.87835
2022-07-26T02:45:01.364Z,95.72414
2022-07-26T02:50:02.835Z,98.38596
2022-07-26T02:55:04.254Z,98
2022-07-26T03:00:05.717Z,96.09877
2022-07-26T03:05:07.250Z,94.61125
2022-07-26T03:10:08.702Z,95.72414
2022-07-26T03:15:10.432Z,98.38596
2022-07-26T03:20:11.987Z,99.55556
2022-07-26T03:25:13.666Z,103.58549
2022-07-26T03:30:15.213Z,106.53298
2022-07-26T03:35:16.647Z,111.84741
2022-07-26T03:40:18.302Z,117.03371
2022-07-26T03:45:20.115Z,118.50425
2022-07-26T03:50:21.601Z,120
2022-07-26T03:55:23.055Z,119
2022-07-26T04:00:24.910Z,120.5043
2022-07-26T04:05:26.435Z,119
2022-07-26T04:10:29.686Z,119.49858
2022-07-26T04:15:31.469Z,118.50425
2022-07-26T04:20:32.929Z,120
2022-07-26T04:25:38.620Z,119
2022-07-26T04:30:43.194Z,118.50425
2022-07-26T04:35:44.885Z,118.0113
2022-07-26T04:40:46.490Z,118.0113
2022-07-26T04:45:48.387Z,115.11111
2022-07-26T04:50:49.923Z,114.16575
2022-07-26T04:55:51.346Z,114.63712
2022-07-26T05:01:10.293Z,113.23077
2022-07-26T05:06:12.361Z,116.06704
2022-07-26T05:11:13.799Z,115.58774
2022-07-26T05:16:15.478Z,116.54902
2022-07-26T05:21:16.966Z,117.03371
2022-07-26T05:26:18.442Z,115.58774
2022-07-26T05:31:20.496Z,117.52113
2022-07-26T05:36:22.039Z,120
2022-07-26T05:41:23.501Z,116.06704
2022-07-26T05:46:25.418Z,123.59184
2022-07-26T05:51:27.146Z,128.98498
2022-07-26T05:56:29.384Z,130.10272
2022-07-26T06:01:30.873Z,130.66667
2022-07-26T06:06:34.549Z,130.10272
2022-07-26T06:11:36.164Z,135.90031
2022-07-26T06:16:39.057Z,133.53846
2022-07-26T06:21:40.549Z,130.10272
2022-07-26T06:26:42.087Z,136.5
2022-07-26T06:31:43.783Z,142.70968
2022-07-26T06:36:45.297Z,143.35275
2022-07-26T06:41:46.760Z,142.70968
2022-07-26T06:46:48.432Z,150.71141
2022-07-26T06:51:49.968Z,147.30033
2022-07-26T06:56:51.745Z,150.71141
2022-07-26T07:01:58.996Z,146.63158
2022-07-26T07:07:01.771Z,139.55556
2022-07-26T07:12:10.390Z,140.17834
2022-07-26T07:17:15.950Z,152.81356
2022-07-26T07:22:20.094Z,150.71141
2022-07-26T07:27:21.862Z,144
2022-07-26T07:32:24.804Z,148.65116
2022-07-26T07:37:27.949Z,158.63415
2022-07-26T07:42:54.741Z,145.96721
2022-07-26T07:47:56.383Z,150.02007
2022-07-26T07:52:59.206Z,154.23891
2022-07-26T07:58:01.041Z,164
2022-07-26T08:03:02.649Z,171.30627
2022-07-26T08:08:04.095Z,174.71161
2022-07-26T08:13:09.526Z,180.01533
2022-07-26T08:18:12.916Z,174.71161
2022-07-26T08:23:15.669Z,179.1145
2022-07-26T08:28:37.508Z,190.4
2022-07-26T08:33:40.777Z,186.51969
2022-07-26T08:38:42.540Z,188.44444
2022-07-26T08:43:51.879Z,183.68872
2022-07-26T08:48:55.711Z,203.91561
2022-07-26T08:54:04.141Z,187.47826
2022-07-26T08:59:07.580Z,196.45902
2022-07-26T09:04:09.605Z,193.39271
2022-07-26T09:09:11.576Z,209.51724
2022-07-26T09:14:13.167Z,224
2022-07-26T09:19:15.168Z,221.47748
2022-07-26T09:24:16.608Z,259.89744
2022-07-26T09:29:18.025Z,225.27854
2022-07-26T09:34:20.159Z,252
2022-07-26T09:39:22.850Z,282.46154
2022-07-26T09:44:37.491Z,288.13408
2022-07-26T09:49:49.817Z,286.22222
2022-07-26T09:54:51.405Z,276.97297
2022-07-26T09:59:53.062Z,286.22222
2022-07-26T10:04:54.831Z,351.94702
2022-07-26T10:09:56.297Z,329
2022-07-26T10:14:59.509Z,324.24691
2022-07-26T10:20:01.575Z,363.04762
2022-07-26T10:25:03.136Z,403.70149
2022-07-26T10:30:04.605Z,444.81301
2022-07-26T10:35:06.084Z,453.09091
2022-07-26T10:40:07.739Z,440.77419
2022-07-26T10:45:09.199Z,453.09091
2022-07-26T10:50:11.350Z,494
2022-07-26T10:55:12.843Z,592.42105
2022-07-26T11:00:14.744Z,695.21951
2022-07-26T11:05:16.257Z,677.33333
2022-07-26T11:10:18.015Z,644
2022-07-26T11:15:19.521Z,744
2022-07-26T11:20:24.213Z,836.75362
2022-07-26T11:25:29.088Z,733.74359
2022-07-26T11:30:30.541Z,988.0678
2022-07-26T11:35:32.167Z,921.77778
2022-07-26T11:40:33.593Z,1312.88889
2022-07-26T11:45:35.144Z,1044
2022-07-26T11:50:36.784Z,1176
2022-07-26T11:55:38.237Z,1128.61538
2022-07-26T12:00:39.730Z,1227.33333
2022-07-26T12:05:41.524Z,1176
2022-07-26T12:10:43.060Z,1201.14286
2022-07-26T12:15:44.975Z,1376.55814
2022-07-26T12:20:50.619Z,1565.05263
2022-07-26T12:25:54.667Z,1410.66667
2022-07-26T12:30:56.203Z,1523.48718
2022-07-26T12:35:57.757Z,1523.48718
2022-07-26T12:40:59.237Z,1312.88889
2022-07-26T12:46:00.757Z,1410.66667
2022-07-26T12:51:03.135Z,1283.13043
2022-07-26T12:56:04.691Z,1283.13043
2022-07-26T13:01:06.194Z,1283.13043
2022-07-26T13:06:07.848Z,970.66667
2022-07-26T13:11:09.255Z,1344
2022-07-26T13:16:12.256Z,1523.48718
2022-07-26T13:21:14.657Z,1810.66667
2022-07-26T13:26:16.064Z,2313.23077
2022-07-26T13:31:18.107Z,2622.26087
2022-07-26T13:36:19.847Z,2877.33333
2022-07-26T13:41:21.310Z,3567.52941
2022-07-26T13:46:23.107Z,2744
2022-07-26T13:51:25.167Z,2510.66667
2022-07-26T13:56:26.778Z,2877.33333
2022-07-26T14:01:43.026Z,2877.33333
2022-07-26T14:06:46.594Z,4682.46154
2022-07-26T14:11:48.353Z,3567.52941
2022-07-26T14:16:50.143Z,2068.13793
2022-07-26T14:22:00.157Z,1446.43902
2022-07-26T14:27:02.877Z,1128.61538
2022-07-26T14:32:04.625Z,1024.70175
2022-07-26T14:37:41.647Z,921.77778
2022-07-26T14:42:46.382Z,1084.74074
2022-07-26T14:47:47.836Z,953.83607
2022-07-26T14:52:49.453Z,585.66667
2022-07-26T14:57:51.011Z,461.64706
2022-07-26T15:02:52.580Z,425.25
2022-07-26T15:07:54.203Z,377.80282
2022-07-26T15:12:55.643Z,284.33149
2022-07-26T15:17:57.081Z,288.13408
2022-07-26T15:22:58.939Z,214.17544
2022-07-26T15:28:00.592Z,252
2022-07-26T15:33:02.156Z,264.83333
2022-07-26T15:38:03.730Z,194.4065
2022-07-26T15:43:05.217Z,141.4359
2022-07-26T15:48:14.866Z,131.23404
2022-07-26T15:53:19.063Z,134.71207
2022-07-26T15:58:20.510Z,135.90031
2022-07-26T16:03:21.946Z,125.17647
2022-07-26T16:08:23.446Z,124.64516
2022-07-26T16:13:25.099Z,126.24852
2022-07-26T16:18:26.745Z,125.71091
2022-07-26T16:23:28.646Z,127.33333
2022-07-26T16:28:30.109Z,128.98498
2022-07-26T16:33:31.644Z,128.98498
2022-07-26T16:38:34.358Z,130.10272
2022-07-26T16:43:35.811Z,131.23404
2022-07-26T16:48:37.566Z,128.98498
2022-07-26T16:53:39.500Z,128.98498
2022-07-26T16:58:41.117Z,105.25654
2022-07-26T17:03:42.599Z,121.01149
2022-07-26T17:08:44.366Z,120
2022-07-26T17:13:46.016Z,119.49858
2022-07-26T17:18:47.761Z,121.52161
2022-07-26T17:23:49.689Z,121.52161
2022-07-26T17:28:51.082Z,119.49858
2022-07-26T17:33:52.511Z,103.17313
2022-07-26T17:38:54.701Z,118.0113
2022-07-26T17:43:56.486Z,123.59184
2022-07-26T17:48:58.034Z,122.03468
2022-07-26T17:53:59.808Z,122.55072
2022-07-26T17:59:01.234Z,128.43114
2022-07-26T18:04:02.835Z,132.3792
2022-07-26T18:09:04.573Z,130.66667
2022-07-26T18:14:06.324Z,177.33333
2022-07-26T18:19:07.988Z,155.68385
2022-07-26T18:24:16.947Z,148.65116
2022-07-26T18:29:19.121Z,140.80511
2022-07-26T18:34:20.736Z,142.70968
2022-07-26T18:39:22.478Z,152.81356
2022-07-26T18:44:23.999Z,168
2022-07-26T18:49:31.215Z,185.56863
2022-07-26T18:54:33.394Z,200.66667
2022-07-26T18:59:34.900Z,200.66667
2022-07-26T19:04:36.500Z,207.24786
2022-07-26T19:09:38.150Z,197.49794
2022-07-26T19:14:39.558Z,202.82353
2022-07-26T19:19:41.025Z,208.37768
2022-07-26T19:24:42.753Z,203.91561
2022-07-26T19:29:44.216Z,210.66667
2022-07-26T19:34:45.696Z,216.56637
2022-07-26T19:39:47.595Z,207.24786
2022-07-26T19:44:49.022Z,187.47826
2022-07-26T19:49:50.531Z,185.56863
2022-07-26T19:54:53.263Z,180.92308
2022-07-26T19:59:54.929Z,169.64103
2022-07-26T20:04:56.433Z,164
2022-07-26T20:09:57.994Z,161.66784
2022-07-26T20:14:59.768Z,157.14879
2022-07-26T20:20:01.165Z,158.63415
2022-07-26T20:25:03.350Z,160.90141
2022-07-26T20:30:05.105Z,160.90141
2022-07-26T20:35:06.545Z,157.88889
2022-07-26T20:40:09.305Z,159.38462
2022-07-26T20:45:11.365Z,156.41379
2022-07-26T20:50:14.480Z,151.40741
2022-07-26T20:55:16.214Z,155.68385
2022-07-26T21:00:17.871Z,154.23891
2022-07-26T21:05:19.445Z,152.81356
2022-07-26T21:10:21.079Z,154.23891
2022-07-26T21:15:22.712Z,151.40741
2022-07-26T21:20:24.338Z,157.88889
2022-07-26T21:25:26.252Z,154.23891
2022-07-26T21:30:27.659Z,152.81356
2022-07-26T21:35:29.330Z,150.71141
2022-07-26T21:40:30.774Z,162.43972
2022-07-26T21:45:32.425Z,155.68385
2022-07-26T21:50:34.063Z,157.14879
2022-07-26T21:55:35.968Z,155.68385
2022-07-26T22:00:37.509Z,152.10811
2022-07-26T22:05:39.282Z,147.30033
2022-07-26T22:10:44.097Z,147.97351
2022-07-26T22:15:45.969Z,145.30719
2022-07-26T22:20:47.563Z,137.10345
2022-07-26T22:25:49.297Z,137.10345
2022-07-26T22:30:50.963Z,131.23404
2022-07-26T22:35:52.400Z,125.17647
2022-07-26T22:40:53.893Z,119
2022-07-26T22:45:55.404Z,116.06704
2022-07-26T22:50:56.911Z,112.76712
2022-07-26T22:55:58.647Z,113.23077
2022-07-26T23:01:00.301Z,112.30601
2022-07-26T23:06:01.784Z,111.84741
2022-07-26T23:11:03.911Z,107.39523
2022-07-26T23:16:05.443Z,103.17313
2022-07-26T23:21:07.089Z,98.77387
2022-07-26T23:26:08.777Z,94.98039
2022-07-26T23:31:10.420Z,93.51456
2022-07-26T23:36:12.024Z,93.15254
2022-07-26T23:41:13.509Z,90.66667
2022-07-26T23:46:15.101Z,89.97156
2022-07-26T23:51:16.823Z,89.97156
2022-07-26T23:56:18.657Z,88.94118
